Time;durP1;ratioP1;P1;durP2;ratioP2;P2;SDS_P1;SDS_P2;PMS_P1;PMS_P2;Temp;Humidity;BMP_temperature;BMP_pressure;BME280_temperature;BME280_humidity;BME280_pressure;Samples;Min_cycle;Max_cycle;Signal;HPM_P1;HPM_P2
2021/03/03 00:01:09;;;;;;;68.00;31.73;;;5.50;60.90;;;;;;5034771;28;20057;-66
2021/03/03 00:03:34;;;;;;;66.90;31.17;;;5.50;61.00;;;;;;5034254;28;20037;-65
2021/03/03 00:06:00;;;;;;;62.80;30.88;;;5.50;61.00;;;;;;5034522;28;20104;-65
2021/03/03 00:08:26;;;;;;;71.45;32.78;;;5.40;60.90;;;;;;5016691;28;20025;-66
2021/03/03 00:10:52;;;;;;;70.65;32.15;;;5.40;61.00;;;;;;5034501;28;20471;-66
2021/03/03 00:13:17;;;;;;;61.40;27.95;;;5.40;61.00;;;;;;5034376;28;20080;-66
2021/03/03 00:15:43;;;;;;;57.85;27.20;;;5.40;61.00;;;;;;5016579;28;20028;-65
2021/03/03 00:18:09;;;;;;;61.30;28.80;;;5.40;61.00;;;;;;5034341;28;20475;-65
2021/03/03 00:20:35;;;;;;;60.78;26.25;;;5.40;60.90;;;;;;5016318;28;20033;-66
2021/03/03 00:23:00;;;;;;;59.55;27.58;;;5.30;60.90;;;;;;5034070;28;20387;-65
2021/03/03 00:25:26;;;;;;;71.10;32.53;;;5.30;60.90;;;;;;5022233;28;20475;-65
2021/03/03 00:27:52;;;;;;;58.17;27.58;;;5.30;60.90;;;;;;5014276;28;20018;-65
2021/03/03 00:30:18;;;;;;;56.55;27.20;;;5.30;61.70;;;;;;5014328;28;20104;-65
2021/03/03 00:32:44;;;;;;;59.05;27.73;;;5.20;60.90;;;;;;5014490;28;20026;-65
2021/03/03 00:35:11;;;;;;;58.80;27.23;;;5.20;60.90;;;;;;5014158;28;20365;-66
2021/03/03 00:37:36;;;;;;;54.05;24.27;;;5.20;60.90;;;;;;5014130;28;20388;-65
2021/03/03 00:40:05;;;;;;;55.47;26.75;;;5.20;61.00;;;;;;5014076;28;20034;-65
2021/03/03 00:42:30;;;;;;;58.35;27.10;;;5.20;61.10;;;;;;5013993;28;20060;-65
2021/03/03 00:44:56;;;;;;;55.83;26.20;;;5.20;61.40;;;;;;5014127;28;20111;-66
2021/03/03 00:47:22;;;;;;;59.15;30.00;;;5.20;61.60;;;;;;5013959;28;20022;-65
2021/03/03 00:49:47;;;;;;;52.47;26.40;;;5.20;61.90;;;;;;5014035;28;20068;-65
2021/03/03 00:52:13;;;;;;;66.50;30.70;;;5.30;62.30;;;;;;5013113;28;20144;-65
2021/03/03 00:54:39;;;;;;;73.38;34.30;;;5.30;62.60;;;;;;5013988;28;20379;-66
2021/03/03 00:57:05;;;;;;;68.43;33.03;;;5.40;62.90;;;;;;5019222;28;20411;-65
2021/03/03 00:59:31;;;;;;;70.35;31.70;;;5.50;63.10;;;;;;5033370;28;20053;-65
2021/03/03 01:01:56;;;;;;;60.72;29.20;;;5.60;63.20;;;;;;5031985;28;20029;-65
2021/03/03 01:04:22;;;;;;;68.80;30.67;;;5.70;63.00;;;;;;5033359;28;20084;-65
2021/03/03 01:06:48;;;;;;;61.72;27.98;;;5.70;63.10;;;;;;5033356;28;20446;-65
2021/03/03 01:09:13;;;;;;;76.25;33.78;;;5.80;62.90;;;;;;5033285;28;20432;-67
2021/03/03 01:11:39;;;;;;;71.32;31.33;;;5.90;63.10;;;;;;5033242;28;20060;-65
2021/03/03 01:14:05;;;;;;;64.00;27.58;;;6.00;63.10;;;;;;5033249;28;20075;-66
2021/03/03 01:16:31;;;;;;;83.88;34.83;;;6.10;63.10;;;;;;5033171;28;20033;-66
2021/03/03 01:18:57;;;;;;;66.88;29.23;;;6.10;63.30;;;;;;5033144;28;20460;-65
2021/03/03 01:21:23;;;;;;;64.97;28.95;;;6.20;63.20;;;;;;5032901;28;20045;-66
2021/03/03 01:23:49;;;;;;;64.10;28.02;;;6.30;63.10;;;;;;5033032;28;20060;-65
2021/03/03 01:26:15;;;;;;;59.47;27.88;;;6.40;63.00;;;;;;5032893;28;20045;-67
2021/03/03 01:28:40;;;;;;;58.83;27.95;;;6.50;62.90;;;;;;5032859;28;20029;-65
2021/03/03 01:31:06;;;;;;;79.68;36.05;;;6.50;62.70;;;;;;5032905;28;20025;-65
2021/03/03 01:33:34;;;;;;;69.68;32.78;;;6.60;62.70;;;;;;5032852;28;20356;-65
2021/03/03 01:36:00;;;;;;;67.75;31.42;;;6.60;62.60;;;;;;5015277;28;20387;-66
2021/03/03 01:38:26;;;;;;;65.97;31.05;;;6.70;62.50;;;;;;5032786;28;20028;-67
2021/03/03 01:40:53;;;;;;;63.35;28.98;;;6.80;62.40;;;;;;5032703;28;20125;-65
2021/03/03 01:43:19;;;;;;;65.50;28.77;;;6.80;62.40;;;;;;5032722;28;20631;-65
2021/03/03 01:45:45;;;;;;;59.85;27.63;;;6.90;62.20;;;;;;5032750;28;20025;-65
2021/03/03 01:48:11;;;;;;;71.13;33.50;;;6.90;62.10;;;;;;5032737;28;20536;-66
2021/03/03 01:50:39;;;;;;;76.05;35.53;;;7.00;62.10;;;;;;5032720;28;20106;-66
2021/03/03 01:53:05;;;;;;;67.25;31.75;;;7.00;61.90;;;;;;5032557;28;20036;-66
2021/03/03 01:55:31;;;;;;;72.05;31.50;;;7.00;61.50;;;;;;5026788;28;20426;-66
2021/03/03 01:57:57;;;;;;;75.30;33.50;;;7.00;61.30;;;;;;5032309;28;20030;-65
2021/03/03 02:00:23;;;;;;;83.65;37.00;;;7.00;61.20;;;;;;5031317;28;20026;-65
2021/03/03 02:02:49;;;;;;;83.93;36.42;;;7.10;61.10;;;;;;5032256;28;20179;-65
2021/03/03 02:05:15;;;;;;;81.40;34.00;;;7.00;60.90;;;;;;5032375;28;20021;-65
2021/03/03 02:07:52;;;;;;;93.10;39.53;;;7.00;60.80;;;;;;5014778;28;20030;-66
2021/03/03 02:10:42;;;;;;;97.20;39.75;;;7.00;61.20;;;;;;5032410;28;20105;-66
2021/03/03 02:13:13;;;;;;;88.13;37.20;;;7.00;60.60;;;;;;5032340;28;20049;-65
2021/03/03 02:15:40;;;;;;;82.40;36.10;;;7.00;60.60;;;;;;5032249;28;20179;-66
2021/03/03 02:18:09;;;;;;;79.25;35.17;;;7.00;60.80;;;;;;5032213;28;20108;-66
2021/03/03 02:20:49;;;;;;;95.53;37.20;;;6.90;60.80;;;;;;5032125;28;20407;-66
2021/03/03 02:23:39;;;;;;;95.63;36.22;;;6.90;61.00;;;;;;5032075;28;20033;-65
2021/03/03 02:26:05;;;;;;;85.90;36.80;;;6.90;60.90;;;;;;5014011;28;20030;-67
2021/03/03 02:28:32;;;;;;;108.82;38.05;;;7.00;60.90;;;;;;5012511;28;20026;-65
2021/03/03 02:30:58;;;;;;;82.63;34.95;;;6.90;60.90;;;;;;5012358;28;20113;-66
2021/03/03 02:33:25;;;;;;;86.95;35.95;;;6.90;60.90;;;;;;5012266;28;20107;-65
2021/03/03 02:35:53;;;;;;;86.93;35.55;;;6.90;60.90;;;;;;5012324;28;20113;-65
2021/03/03 02:38:19;;;;;;;82.82;34.92;;;6.90;60.90;;;;;;5012311;28;20061;-66
2021/03/03 02:40:45;;;;;;;89.70;38.47;;;6.90;61.00;;;;;;5011083;28;20029;-65
2021/03/03 02:43:17;;;;;;;93.00;37.75;;;6.90;61.00;;;;;;5012238;28;20388;-65
2021/03/03 02:45:46;;;;;;;92.80;36.92;;;6.90;61.10;;;;;;5012214;28;20375;-66
2021/03/03 02:48:13;;;;;;;106.95;39.83;;;6.90;61.10;;;;;;5012199;28;20022;-65
2021/03/03 02:50:39;;;;;;;94.05;39.30;;;6.90;61.20;;;;;;5012137;28;20384;-66
2021/03/03 02:53:05;;;;;;;98.57;39.35;;;6.80;61.10;;;;;;5010855;28;20391;-66
2021/03/03 02:55:31;;;;;;;105.28;38.88;;;6.80;61.20;;;;;;5009973;28;20063;-66
2021/03/03 02:58:00;;;;;;;88.22;37.85;;;6.80;61.30;;;;;;5031487;28;20060;-65
2021/03/03 03:00:29;;;;;;;87.25;36.17;;;6.80;61.40;;;;;;5031848;28;20049;-66
2021/03/03 03:03:24;;;;;;;82.10;34.92;;;6.70;61.40;;;;;;5031648;28;20028;-65
2021/03/03 03:06:32;;;;;;;135.82;39.38;;;6.70;61.60;;;;;;5026130;28;20034;-65
2021/03/03 03:09:03;;;;;;;96.22;36.35;;;6.70;61.70;;;;;;5031180;28;20552;-66
2021/03/03 03:11:31;;;;;;;130.18;40.33;;;6.70;61.60;;;;;;5031653;28;20116;-66
2021/03/03 03:14:06;;;;;;;100.00;35.92;;;6.70;61.70;;;;;;5031644;28;20026;-66
2021/03/03 03:16:33;;;;;;;114.43;40.50;;;6.60;61.80;;;;;;5034517;28;20041;-65
2021/03/03 03:19:02;;;;;;;106.38;40.35;;;6.60;61.80;;;;;;5035432;28;20436;-66
2021/03/03 03:21:29;;;;;;;122.10;41.85;;;6.60;62.00;;;;;;5035198;28;20025;-66
2021/03/03 03:23:57;;;;;;;143.95;44.78;;;6.60;62.20;;;;;;5035262;28;20017;-66
2021/03/03 03:26:23;;;;;;;129.20;43.40;;;6.60;62.30;;;;;;5035032;28;20490;-65
2021/03/03 03:28:50;;;;;;;86.32;36.80;;;6.60;62.40;;;;;;5035192;28;20534;-66
2021/03/03 03:31:17;;;;;;;96.18;36.20;;;6.50;62.40;;;;;;5035162;28;20032;-66
2021/03/03 03:33:43;;;;;;;96.22;34.20;;;6.60;62.50;;;;;;5035023;28;20075;-65
2021/03/03 03:36:09;;;;;;;95.93;36.40;;;6.60;62.60;;;;;;5035078;28;20029;-65
2021/03/03 03:38:36;;;;;;;125.88;42.17;;;6.60;62.80;;;;;;5034973;28;20075;-65
2021/03/03 03:41:05;;;;;;;100.15;35.83;;;6.60;62.90;;;;;;5035018;28;20025;-66
2021/03/03 03:43:32;;;;;;;87.30;36.20;;;6.70;62.90;;;;;;5034943;28;20025;-66
2021/03/03 03:46:01;;;;;;;92.22;34.97;;;6.70;62.90;;;;;;5034887;28;20096;-66
2021/03/03 03:48:28;;;;;;;90.40;34.53;;;6.70;62.80;;;;;;5033561;28;20052;-65
2021/03/03 03:50:55;;;;;;;110.38;39.28;;;6.80;63.00;;;;;;5034805;28;20363;-66
2021/03/03 03:53:22;;;;;;;120.30;44.40;;;6.80;63.00;;;;;;5034570;28;20029;-66
2021/03/03 03:55:48;;;;;;;98.43;40.95;;;6.80;63.00;;;;;;5034667;28;20026;-66
2021/03/03 03:58:13;;;;;;;105.40;40.72;;;6.80;62.80;;;;;;5018534;28;20042;-65
2021/03/03 04:00:39;;;;;;;100.47;40.25;;;6.80;62.70;;;;;;5014912;28;20029;-66
2021/03/03 04:03:05;;;;;;;123.78;42.55;;;6.80;62.60;;;;;;5014690;28;20041;-65
2021/03/03 04:05:31;;;;;;;141.30;41.80;;;6.80;62.70;;;;;;5014861;28;20515;-65
2021/03/03 04:07:57;;;;;;;147.20;46.08;;;6.80;62.70;;;;;;5014517;28;20057;-66
2021/03/03 04:10:26;;;;;;;131.10;43.95;;;6.80;62.80;;;;;;5014317;28;20021;-65
2021/03/03 04:12:52;;;;;;;140.80;44.17;;;6.80;62.80;;;;;;5014791;28;20045;-65
2021/03/03 04:15:19;;;;;;;150.50;48.00;;;6.80;62.80;;;;;;5015534;28;20030;-65
2021/03/03 04:17:45;;;;;;;158.68;48.42;;;6.70;63.00;;;;;;5015433;28;20104;-66
2021/03/03 04:20:12;;;;;;;102.82;39.67;;;6.70;63.10;;;;;;5015237;28;20037;-65
2021/03/03 04:22:39;;;;;;;94.25;37.65;;;6.70;63.20;;;;;;5015460;28;20415;-66
2021/03/03 04:25:08;;;;;;;160.80;45.20;;;6.70;63.30;;;;;;5015249;28;20026;-66
2021/03/03 04:27:34;;;;;;;108.38;41.50;;;6.70;63.40;;;;;;5014060;28;20041;-66
2021/03/03 04:30:00;;;;;;;100.90;39.10;;;6.70;63.30;;;;;;5015136;28;20018;-66
2021/03/03 04:32:26;;;;;;;83.85;34.92;;;6.70;63.30;;;;;;5015123;28;20026;-65
2021/03/03 04:34:51;;;;;;;83.82;33.65;;;6.70;63.30;;;;;;5015062;28;20093;-65
2021/03/03 04:37:17;;;;;;;96.07;38.22;;;6.70;63.30;;;;;;5015144;28;20056;-66
2021/03/03 04:39:43;;;;;;;80.15;31.30;;;6.70;63.30;;;;;;5015056;28;20030;-66
2021/03/03 04:42:09;;;;;;;96.70;36.22;;;6.70;63.30;;;;;;5014994;28;20068;-66
2021/03/03 04:44:35;;;;;;;86.28;33.25;;;6.70;63.30;;;;;;5014913;28;20029;-66
2021/03/03 04:47:00;;;;;;;87.22;35.20;;;6.80;63.40;;;;;;5013598;28;20057;-65
2021/03/03 04:49:26;;;;;;;78.43;33.03;;;6.80;63.40;;;;;;5014741;28;20077;-65
2021/03/03 04:51:52;;;;;;;109.15;40.58;;;6.80;63.40;;;;;;5023430;28;20475;-64
2021/03/03 04:54:19;;;;;;;91.50;34.75;;;6.80;63.50;;;;;;5034544;28;20096;-66
2021/03/03 04:56:45;;;;;;;91.15;38.22;;;6.80;63.50;;;;;;5034504;28;20090;-65
2021/03/03 04:59:10;;;;;;;124.05;40.47;;;6.80;63.40;;;;;;5034227;28;20041;-66
2021/03/03 05:01:36;;;;;;;138.57;40.78;;;6.80;63.50;;;;;;5034384;28;20051;-65
2021/03/03 05:04:02;;;;;;;97.93;41.65;;;6.80;63.60;;;;;;5034371;28;20029;-65
2021/03/03 05:06:28;;;;;;;92.35;37.03;;;6.80;63.50;;;;;;5034269;28;20025;-65
2021/03/03 05:08:53;;;;;;;110.82;39.58;;;6.70;63.60;;;;;;5034230;28;20053;-66
2021/03/03 05:11:22;;;;;;;98.82;40.13;;;6.70;63.70;;;;;;5034142;28;20104;-65
2021/03/03 05:13:48;;;;;;;84.25;36.25;;;6.70;63.70;;;;;;5034188;28;20067;-65
2021/03/03 05:16:14;;;;;;;91.18;36.83;;;6.70;64.20;;;;;;5034015;28;20022;-66
2021/03/03 05:18:40;;;;;;;105.75;38.10;;;6.70;63.80;;;;;;5034015;28;20036;-65
2021/03/03 05:21:07;;;;;;;113.13;36.22;;;6.70;63.80;;;;;;5033874;28;20428;-65
2021/03/03 05:23:34;;;;;;;87.03;36.20;;;6.70;63.80;;;;;;5033874;28;20075;-65
2021/03/03 05:26:01;;;;;;;118.38;37.40;;;6.60;63.60;;;;;;5033885;28;20475;-66
2021/03/03 05:28:28;;;;;;;75.43;33.75;;;6.60;64.30;;;;;;5033874;28;20072;-66
2021/03/03 05:30:54;;;;;;;99.57;37.15;;;6.50;63.50;;;;;;5016026;28;20108;-65
2021/03/03 05:33:30;;;;;;;116.25;34.15;;;6.50;63.50;;;;;;5033651;28;20105;-65
2021/03/03 05:35:59;;;;;;;133.07;38.22;;;6.40;63.40;;;;;;5033680;28;20056;-65
2021/03/03 05:38:25;;;;;;;97.47;33.92;;;6.40;63.40;;;;;;5033338;28;20085;-66
2021/03/03 05:40:52;;;;;;;81.50;33.08;;;6.30;63.40;;;;;;5033630;28;20030;-66
2021/03/03 05:43:19;;;;;;;66.07;30.90;;;6.30;63.50;;;;;;5033568;28;20021;-66
2021/03/03 05:45:46;;;;;;;75.75;30.80;;;6.30;63.60;;;;;;5032205;28;20044;-66
2021/03/03 05:48:21;;;;;;;70.47;28.05;;;6.30;63.70;;;;;;5033491;28;20033;-66
2021/03/03 05:50:52;;;;;;;66.70;30.70;;;6.20;63.60;;;;;;5033284;28;20032;-66
2021/03/03 05:53:18;;;;;;;79.03;32.17;;;6.20;63.60;;;;;;5033528;28;20053;-66
2021/03/03 05:55:45;;;;;;;80.38;31.38;;;6.20;63.50;;;;;;5032152;28;20053;-66
2021/03/03 05:58:12;;;;;;;73.63;32.97;;;6.20;63.50;;;;;;5033121;28;20487;-66
2021/03/03 06:00:39;;;;;;;63.90;30.45;;;6.20;63.40;;;;;;5033353;28;20120;-66
2021/03/03 06:03:05;;;;;;;62.67;30.10;;;6.20;63.40;;;;;;5033249;28;20122;-66
2021/03/03 06:05:37;;;;;;;76.40;31.95;;;6.20;63.30;;;;;;5033262;28;20085;-66
2021/03/03 06:08:04;;;;;;;60.38;28.50;;;6.10;63.20;;;;;;5033114;28;20067;-66
2021/03/03 06:10:30;;;;;;;58.42;25.77;;;6.10;63.20;;;;;;5033150;28;20383;-66
2021/03/03 06:12:56;;;;;;;79.45;33.05;;;6.10;63.20;;;;;;5033140;28;20031;-66
2021/03/03 06:15:23;;;;;;;70.00;31.25;;;6.10;63.10;;;;;;5031833;28;20479;-65
2021/03/03 06:17:49;;;;;;;62.63;30.20;;;6.10;63.10;;;;;;5032905;28;20032;-66
2021/03/03 06:20:15;;;;;;;79.78;34.55;;;6.20;63.20;;;;;;5032936;28;20025;-66
2021/03/03 06:22:41;;;;;;;76.63;30.08;;;6.10;63.10;;;;;;5032906;28;20030;-66
2021/03/03 06:25:21;;;;;;;85.03;32.67;;;6.20;63.20;;;;;;5032945;28;20044;-68
2021/03/03 06:27:47;;;;;;;69.72;32.00;;;6.20;63.20;;;;;;5033060;28;20021;-66
2021/03/03 06:30:15;;;;;;;59.22;28.27;;;6.20;63.10;;;;;;5032845;28;20025;-66
2021/03/03 06:33:01;;;;;;;68.25;32.63;;;6.20;63.20;;;;;;5032721;28;20087;-66
2021/03/03 06:35:48;;;;;;;72.47;31.73;;;6.20;63.20;;;;;;5031294;28;20036;-66
2021/03/03 06:38:15;;;;;;;67.30;33.03;;;6.20;63.10;;;;;;5032709;28;20514;-66
2021/03/03 06:40:55;;;;;;;70.80;31.17;;;6.30;63.00;;;;;;5031137;28;20026;-67
2021/03/03 06:43:26;;;;;;;79.00;33.90;;;6.30;63.00;;;;;;5032165;28;20025;-66
2021/03/03 06:45:53;;;;;;;69.70;31.70;;;6.30;62.90;;;;;;5032631;28;20379;-67
2021/03/03 06:48:39;;;;;;;67.13;32.20;;;6.30;63.00;;;;;;5032423;28;20052;-66
2021/03/03 06:51:26;;;;;;;60.95;28.45;;;6.30;62.80;;;;;;5034602;28;20045;-66
2021/03/03 06:53:53;;;;;;;68.38;30.33;;;6.40;62.80;;;;;;5036639;28;20326;-66
2021/03/03 06:56:41;;;;;;;65.00;31.38;;;6.50;62.80;;;;;;5036440;28;20025;-66
2021/03/03 06:59:17;;;;;;;72.65;31.73;;;6.50;62.60;;;;;;5036325;28;20187;-66
2021/03/03 07:01:47;;;;;;;64.15;29.20;;;6.50;62.20;;;;;;5036595;28;20053;-67
2021/03/03 07:04:35;;;;;;;69.55;30.80;;;6.60;62.30;;;;;;5036307;28;20579;-66
2021/03/03 07:07:10;;;;;;;73.88;32.35;;;6.60;62.20;;;;;;5036455;28;20022;-66
2021/03/03 07:09:40;;;;;;;64.38;29.63;;;6.60;62.10;;;;;;5036334;28;20021;-66
2021/03/03 07:12:14;;;;;;;63.70;29.08;;;6.60;61.80;;;;;;5036332;28;20029;-66
2021/03/03 07:14:40;;;;;;;68.13;30.25;;;6.70;61.70;;;;;;5036248;28;20053;-66
2021/03/03 07:17:15;;;;;;;65.32;29.15;;;6.70;61.50;;;;;;5036040;28;20056;-66
2021/03/03 07:19:49;;;;;;;65.53;29.20;;;6.70;61.30;;;;;;5036162;28;20385;-67
2021/03/03 07:22:32;;;;;;;59.22;28.13;;;6.70;61.10;;;;;;5036006;28;20025;-67
2021/03/03 07:25:05;;;;;;;64.28;30.52;;;6.70;60.80;;;;;;5035842;28;20045;-66
2021/03/03 07:27:32;;;;;;;63.25;28.17;;;6.70;60.60;;;;;;5035940;28;20026;-66
2021/03/03 07:30:09;;;;;;;51.85;24.27;;;6.70;60.40;;;;;;5035584;28;20036;-67
2021/03/03 07:32:36;;;;;;;50.97;25.00;;;6.80;60.70;;;;;;5035792;28;20026;-66
2021/03/03 07:35:03;;;;;;;59.15;26.92;;;6.80;60.90;;;;;;5035837;28;20022;-67
2021/03/03 07:37:41;;;;;;;64.63;30.15;;;6.90;60.90;;;;;;5035729;28;20025;-67
2021/03/03 07:40:10;;;;;;;85.90;31.05;;;7.00;60.60;;;;;;5035763;28;20107;-67
2021/03/03 07:42:37;;;;;;;64.78;28.00;;;7.00;60.20;;;;;;5035608;28;20057;-66
2021/03/03 07:45:09;;;;;;;73.78;30.88;;;7.10;60.10;;;;;;5035545;28;20076;-66
2021/03/03 07:47:37;;;;;;;71.25;28.63;;;7.10;59.90;;;;;;5035445;28;20402;-67
2021/03/03 07:50:14;;;;;;;73.55;32.58;;;7.10;60.00;;;;;;5035539;28;20375;-66
2021/03/03 07:52:54;;;;;;;89.45;33.60;;;7.20;60.00;;;;;;5035484;28;20026;-66
2021/03/03 07:55:20;;;;;;;67.15;28.73;;;7.20;59.90;;;;;;5035528;28;20033;-66
2021/03/03 07:57:48;;;;;;;65.88;28.55;;;7.30;60.00;;;;;;5035870;28;20030;-67
2021/03/03 08:00:30;;;;;;;69.50;29.90;;;7.30;60.10;;;;;;5035592;28;20099;-66
2021/03/03 08:02:58;;;;;;;66.57;30.42;;;7.40;61.00;;;;;;5035268;28;20131;-66
2021/03/03 08:05:36;;;;;;;64.10;29.60;;;7.50;60.10;;;;;;5037010;28;20035;-66
2021/03/03 08:08:14;;;;;;;73.75;32.05;;;7.60;60.00;;;;;;5054533;28;20021;-67
2021/03/03 08:10:41;;;;;;;74.78;32.53;;;7.60;59.80;;;;;;5054280;28;20074;-67
2021/03/03 08:13:12;;;;;;;68.55;31.25;;;7.70;59.60;;;;;;5055015;28;20071;-66
2021/03/03 08:15:46;;;;;;;75.70;30.73;;;7.80;59.80;;;;;;5055252;28;20052;-66
2021/03/03 08:18:15;;;;;;;86.97;32.47;;;7.90;59.90;;;;;;5055151;28;20048;-66
2021/03/03 08:20:56;;;;;;;60.97;29.27;;;8.00;59.60;;;;;;5054942;28;20113;-66
2021/03/03 08:23:34;;;;;;;69.15;31.63;;;8.00;59.40;;;;;;5054863;28;20090;-66
2021/03/03 08:26:29;;;;;;;80.75;32.75;;;8.10;59.10;;;;;;5037162;28;20368;-67
2021/03/03 08:29:20;;;;;;;64.40;28.90;;;8.20;58.90;;;;;;5054778;28;20083;-67
2021/03/03 08:31:46;;;;;;;71.78;31.05;;;8.30;59.00;;;;;;5054753;28;20104;-66
2021/03/03 08:34:13;;;;;;;64.15;28.05;;;8.30;58.90;;;;;;5014089;28;20119;-66
2021/03/03 08:36:40;;;;;;;82.70;32.85;;;8.50;59.00;;;;;;5034368;28;20578;-66
2021/03/03 08:39:06;;;;;;;65.00;29.23;;;8.60;59.00;;;;;;5034722;28;20548;-67
2021/03/03 08:41:36;;;;;;;65.90;31.25;;;8.70;58.70;;;;;;5034143;28;20034;-66
2021/03/03 08:44:16;;;;;;;59.40;26.95;;;8.80;58.50;;;;;;5034605;28;20022;-66
2021/03/03 08:46:42;;;;;;;65.60;31.77;;;8.90;58.40;;;;;;5032469;28;20017;-66
2021/03/03 08:49:07;;;;;;;77.65;35.00;;;9.00;58.10;;;;;;5034037;28;20056;-66
2021/03/03 08:51:44;;;;;;;69.07;30.60;;;9.10;57.70;;;;;;5033940;28;20029;-66
2021/03/03 08:54:21;;;;;;;73.65;31.67;;;9.10;57.40;;;;;;5033811;28;20434;-67
2021/03/03 08:56:48;;;;;;;74.65;34.28;;;9.20;57.50;;;;;;5034339;28;20525;-66
2021/03/03 08:59:40;;;;;;;71.10;29.73;;;9.20;57.40;;;;;;5034050;28;20049;-67
2021/03/03 09:02:09;;;;;;;64.47;30.38;;;9.30;57.40;;;;;;5023536;28;20499;-67
2021/03/03 09:04:38;;;;;;;68.30;31.05;;;9.40;57.30;;;;;;5033110;28;20021;-67
2021/03/03 09:07:31;;;;;;;66.57;30.90;;;9.50;57.30;;;;;;5034545;28;20419;-66
2021/03/03 09:10:15;;;;;;;72.53;31.83;;;9.50;57.10;;;;;;5034232;28;20097;-66
2021/03/03 09:12:44;;;;;;;98.50;35.90;;;9.60;56.80;;;;;;5033220;28;20068;-66
2021/03/03 09:15:15;;;;;;;93.63;38.92;;;9.70;56.60;;;;;;5034096;28;20076;-67
2021/03/03 09:17:43;;;;;;;85.68;34.88;;;9.70;56.20;;;;;;5033827;28;20112;-67
2021/03/03 09:20:15;;;;;;;92.65;37.78;;;9.70;56.30;;;;;;5033434;28;20029;-66
2021/03/03 09:22:43;;;;;;;82.20;33.80;;;9.70;56.30;;;;;;5033780;28;20470;-67
2021/03/03 09:25:17;;;;;;;97.22;39.05;;;9.80;56.40;;;;;;5033823;28;20064;-67
2021/03/03 09:27:54;;;;;;;91.80;37.15;;;9.80;56.30;;;;;;5033774;28;20379;-65
2021/03/03 09:30:22;;;;;;;100.18;39.85;;;9.80;56.20;;;;;;5015822;28;20105;-65
2021/03/03 09:32:49;;;;;;;92.65;39.80;;;9.90;56.30;;;;;;5020098;28;20445;-65
2021/03/03 09:35:17;;;;;;;88.00;38.78;;;9.90;56.40;;;;;;5015947;28;20391;-65
2021/03/03 09:37:45;;;;;;;97.82;40.88;;;9.90;56.20;;;;;;5033419;28;20032;-65
2021/03/03 09:40:17;;;;;;;96.30;40.22;;;10.00;55.90;;;;;;5033499;28;20025;-66
2021/03/03 09:42:46;;;;;;;77.85;36.25;;;10.00;55.90;;;;;;5015684;28;20021;-66
2021/03/03 09:45:17;;;;;;;95.70;39.50;;;10.00;56.00;;;;;;5033248;28;20026;-66
2021/03/03 09:47:43;;;;;;;87.25;38.63;;;10.10;55.80;;;;;;5033355;28;20021;-66
2021/03/03 09:50:11;;;;;;;86.65;37.20;;;10.10;55.60;;;;;;5033093;28;20029;-66
2021/03/03 09:52:42;;;;;;;77.38;35.25;;;10.20;55.50;;;;;;5033291;28;20029;-66
2021/03/03 09:55:13;;;;;;;67.68;29.42;;;10.20;55.40;;;;;;5033080;28;20029;-66
2021/03/03 09:57:40;;;;;;;71.45;34.78;;;10.30;55.70;;;;;;5033395;28;20033;-66
2021/03/03 10:00:09;;;;;;;66.65;32.63;;;10.30;55.40;;;;;;5033173;28;20584;-66
2021/03/03 10:02:37;;;;;;;55.80;28.73;;;10.40;55.50;;;;;;5033021;28;20025;-66
2021/03/03 10:05:04;;;;;;;62.60;31.88;;;10.50;55.60;;;;;;5033053;28;20356;-66
2021/03/03 10:07:29;;;;;;;63.35;30.17;;;10.70;55.50;;;;;;5032795;28;20031;-68
2021/03/03 10:09:57;;;;;;;64.50;31.85;;;10.80;55.00;;;;;;5032991;28;20100;-65
2021/03/03 10:12:34;;;;;;;70.35;31.80;;;11.00;54.70;;;;;;5032778;28;20039;-65
2021/03/03 10:15:11;;;;;;;63.72;29.92;;;11.10;54.40;;;;;;5047921;28;20021;-65
2021/03/03 10:17:39;;;;;;;68.90;31.05;;;11.30;54.60;;;;;;5049878;28;20024;-65
2021/03/03 10:20:09;;;;;;;65.28;31.75;;;11.40;54.20;;;;;;5031345;28;20033;-66
2021/03/03 10:22:36;;;;;;;66.15;32.47;;;11.60;53.90;;;;;;5032084;28;20037;-66
2021/03/03 10:25:07;;;;;;;62.60;31.48;;;11.70;53.50;;;;;;5031214;28;20101;-66
2021/03/03 10:27:40;;;;;;;61.47;29.42;;;11.80;52.70;;;;;;5016204;28;20013;-67
2021/03/03 10:30:24;;;;;;;62.07;29.80;;;11.80;52.50;;;;;;5032090;28;20029;-67
2021/03/03 10:32:53;;;;;;;67.57;31.55;;;11.80;52.60;;;;;;5031857;28;20264;-67
2021/03/03 10:35:19;;;;;;;65.45;32.05;;;11.80;52.70;;;;;;5031931;28;20612;-66
2021/03/03 10:37:45;;;;;;;62.78;30.90;;;11.80;52.40;;;;;;5031191;28;20022;-67
2021/03/03 10:40:16;;;;;;;77.75;35.30;;;11.80;52.60;;;;;;5031704;28;20060;-67
2021/03/03 10:42:43;;;;;;;62.85;32.40;;;11.80;52.30;;;;;;5031658;28;20573;-67
2021/03/03 10:45:18;;;;;;;58.28;28.63;;;11.80;52.30;;;;;;5031732;28;20060;-65
2021/03/03 10:47:45;;;;;;;62.72;30.48;;;11.90;52.60;;;;;;5031281;28;20079;-66
2021/03/03 10:50:12;;;;;;;68.25;32.72;;;11.90;52.50;;;;;;5031605;28;20017;-66
2021/03/03 10:52:38;;;;;;;71.90;34.58;;;11.90;52.60;;;;;;5013894;28;20044;-66
2021/03/03 10:55:21;;;;;;;84.82;35.53;;;12.00;52.30;;;;;;5031316;28;20026;-66
2021/03/03 10:58:13;;;;;;;72.93;34.25;;;12.00;52.30;;;;;;5031422;28;20033;-66
2021/03/03 11:00:59;;;;;;;71.65;33.80;;;12.10;52.30;;;;;;5013826;28;20352;-66
2021/03/03 11:03:27;;;;;;;67.22;33.63;;;12.20;52.30;;;;;;5030992;28;20034;-66
2021/03/03 11:05:57;;;;;;;68.35;34.83;;;12.40;52.40;;;;;;5031312;28;20045;-66
2021/03/03 11:08:25;;;;;;;67.30;32.80;;;12.50;52.10;;;;;;5031240;28;20053;-66
2021/03/03 11:10:52;;;;;;;62.78;33.50;;;12.60;52.00;;;;;;5031497;28;20104;-66
2021/03/03 11:13:18;;;;;;;76.25;36.30;;;12.80;51.90;;;;;;5031253;28;20025;-65
2021/03/03 11:15:45;;;;;;;75.18;35.35;;;12.90;51.60;;;;;;5031503;28;20026;-66
2021/03/03 11:18:12;;;;;;;74.45;36.28;;;13.00;51.30;;;;;;5025061;28;20056;-65
2021/03/03 11:20:38;;;;;;;71.65;34.67;;;13.20;51.20;;;;;;5030625;28;20026;-65
2021/03/03 11:23:05;;;;;;;68.75;34.40;;;13.30;51.10;;;;;;5031437;28;20057;-66
2021/03/03 11:25:32;;;;;;;72.75;35.92;;;13.40;50.90;;;;;;5013545;28;20033;-66
2021/03/03 11:27:58;;;;;;;71.07;34.63;;;13.50;50.40;;;;;;5030760;28;20025;-66
2021/03/03 11:30:24;;;;;;;60.63;31.73;;;13.60;50.30;;;;;;5013700;28;20147;-67
2021/03/03 11:32:51;;;;;;;63.17;32.33;;;13.70;50.40;;;;;;5031176;28;20025;-67
2021/03/03 11:35:18;;;;;;;70.10;35.72;;;13.70;50.20;;;;;;5031060;28;20494;-67
2021/03/03 11:37:44;;;;;;;72.03;35.08;;;13.80;49.90;;;;;;5033978;28;20056;-66
2021/03/03 11:40:10;;;;;;;66.45;34.83;;;13.70;49.70;;;;;;5034596;28;20029;-67
2021/03/03 11:42:36;;;;;;;77.25;36.67;;;13.70;49.50;;;;;;5033493;28;20044;-66
2021/03/03 11:45:02;;;;;;;80.15;38.25;;;13.60;49.40;;;;;;5034638;28;20025;-66
2021/03/03 11:47:28;;;;;;;75.15;36.35;;;13.50;49.40;;;;;;5034529;28;20482;-67
2021/03/03 11:49:53;;;;;;;76.40;35.33;;;13.40;49.60;;;;;;5034590;28;20138;-65
2021/03/03 11:52:19;;;;;;;76.57;37.03;;;13.20;50.00;;;;;;5016623;28;20032;-68
2021/03/03 11:54:45;;;;;;;66.45;33.20;;;13.20;50.20;;;;;;5032983;28;20369;-69
2021/03/03 11:57:11;;;;;;;78.53;34.67;;;13.10;50.40;;;;;;5016563;28;20041;-68
2021/03/03 11:59:36;;;;;;;69.47;32.90;;;13.10;50.70;;;;;;5034488;28;20061;-68
2021/03/03 12:02:02;;;;;;;76.00;36.60;;;13.10;50.80;;;;;;5034404;28;20026;-68
2021/03/03 12:04:28;;;;;;;74.10;36.75;;;13.00;50.80;;;;;;5034324;28;20075;-68
2021/03/03 12:06:54;;;;;;;76.90;34.40;;;13.00;50.80;;;;;;5034348;28;20029;-67
2021/03/03 12:09:20;;;;;;;64.18;32.80;;;13.00;51.00;;;;;;5034202;28;20458;-68
2021/03/03 12:11:46;;;;;;;67.63;31.95;;;13.00;51.20;;;;;;5033643;28;20029;-68
2021/03/03 12:14:11;;;;;;;61.40;31.90;;;13.00;51.40;;;;;;5033802;28;20021;-68
2021/03/03 12:16:37;;;;;;;67.13;32.88;;;13.10;51.60;;;;;;5033971;28;20026;-68
2021/03/03 12:19:03;;;;;;;65.50;34.47;;;13.20;51.50;;;;;;5021032;28;20105;-68
2021/03/03 12:21:29;;;;;;;64.47;33.92;;;13.30;51.40;;;;;;5014145;28;20030;-68
2021/03/03 12:23:54;;;;;;;69.82;32.80;;;13.30;51.10;;;;;;5025744;28;20036;-68
2021/03/03 12:26:20;;;;;;;65.80;33.22;;;13.40;51.10;;;;;;5018686;28;20030;-69
2021/03/03 12:28:46;;;;;;;68.60;34.58;;;13.50;51.00;;;;;;5033596;28;20029;-68
2021/03/03 12:31:12;;;;;;;67.55;35.25;;;13.60;50.80;;;;;;5033093;28;20021;-69
2021/03/03 12:33:38;;;;;;;64.68;32.72;;;13.60;50.80;;;;;;5034469;28;20033;-68
2021/03/03 12:36:07;;;;;;;70.00;36.42;;;13.60;50.80;;;;;;5034700;28;20033;-67
2021/03/03 12:38:34;;;;;;;63.13;34.05;;;13.70;50.60;;;;;;5034403;28;20491;-68
2021/03/03 12:41:01;;;;;;;73.65;34.70;;;13.80;50.70;;;;;;5029930;28;20018;-69
2021/03/03 12:43:29;;;;;;;62.83;32.38;;;13.80;50.40;;;;;;5028148;28;20030;-68